Terminal Aerodrome Forecast
Issued by NWS

Home | Current Version | Previous Version | Text Only | Print | Product List | Glossary On
Versions: 1 2 3 4 5 6 7 8 9 10 11 12 13 14 15 16 17 18 19 20 21 22 23 24 25
000
FTUS45 KBOU 250538
TAFAPA
TAF
KAPA 250538Z 2506/2606 17011KT P6SM FEW150 SCT220
     FM250800 20009KT P6SM SCT140 BKN220
     FM251400 25008KT P6SM FEW090 BKN150
     FM252000 16007KT P6SM VCTS SCT090CB BKN120
     FM260200 19010KT P6SM FEW090 BKN150=

USA.gov is the U.S. government's official web portal to all federal, state and local government web resources and services.